sensor_id;sensor_type;location;lat;lon;timestamp;P1;durP1;ratioP1;P2;durP2;ratioP2
487;SDS011;16586;48.976;9.584;2023-03-01T00:00:05;297.20;;;283.00;;
487;SDS011;16586;48.976;9.584;2023-03-01T00:02:33;305.60;;;291.00;;
487;SDS011;16586;48.976;9.584;2023-03-01T00:05:00;332.20;;;316.33;;
487;SDS011;16586;48.976;9.584;2023-03-01T00:07:27;299.70;;;285.38;;
487;SDS011;16586;48.976;9.584;2023-03-01T00:09:55;46.88;;;44.58;;
487;SDS011;16586;48.976;9.584;2023-03-01T00:12:22;36.70;;;34.90;;
487;SDS011;16586;48.976;9.584;2023-03-01T00:14:49;43.42;;;41.33;;
487;SDS011;16586;48.976;9.584;2023-03-01T00:17:16;27.02;;;25.70;;
487;SDS011;16586;48.976;9.584;2023-03-01T00:19:43;22.52;;;21.42;;
487;SDS011;16586;48.976;9.584;2023-03-01T00:22:09;25.30;;;24.02;;
487;SDS011;16586;48.976;9.584;2023-03-01T00:24:36;22.40;;;21.30;;
487;SDS011;16586;48.976;9.584;2023-03-01T00:27:04;22.55;;;21.45;;
487;SDS011;16586;48.976;9.584;2023-03-01T00:29:32;37.78;;;35.92;;
487;SDS011;16586;48.976;9.584;2023-03-01T00:31:59;35.88;;;34.08;;
487;SDS011;16586;48.976;9.584;2023-03-01T00:34:25;29.38;;;27.92;;
487;SDS011;16586;48.976;9.584;2023-03-01T00:36:52;46.22;;;43.97;;
487;SDS011;16586;48.976;9.584;2023-03-01T00:39:19;45.10;;;42.90;;
487;SDS011;16586;48.976;9.584;2023-03-01T00:41:46;35.00;;;33.30;;
487;SDS011;16586;48.976;9.584;2023-03-01T00:44:14;50.53;;;48.08;;
487;SDS011;16586;48.976;9.584;2023-03-01T00:46:41;35.15;;;33.45;;
487;SDS011;16586;48.976;9.584;2023-03-01T00:49:07;38.38;;;36.47;;
487;SDS011;16586;48.976;9.584;2023-03-01T00:51:34;36.63;;;34.83;;
487;SDS011;16586;48.976;9.584;2023-03-01T00:54:01;49.83;;;47.40;;
487;SDS011;16586;48.976;9.584;2023-03-01T00:56:29;49.95;;;47.55;;
487;SDS011;16586;48.976;9.584;2023-03-01T00:58:56;49.23;;;46.83;;
487;SDS011;16586;48.976;9.584;2023-03-01T01:01:25;53.07;;;50.47;;
487;SDS011;16586;48.976;9.584;2023-03-01T01:03:56;53.90;;;51.30;;
487;SDS011;16586;48.976;9.584;2023-03-01T01:06:24;66.72;;;63.53;;
487;SDS011;16586;48.976;9.584;2023-03-01T01:08:53;64.28;;;61.17;;
487;SDS011;16586;48.976;9.584;2023-03-01T01:11:20;60.75;;;57.80;;
487;SDS011;16586;48.976;9.584;2023-03-01T01:13:48;49.85;;;47.45;;
487;SDS011;16586;48.976;9.584;2023-03-01T01:16:26;45.30;;;43.10;;
487;SDS011;16586;48.976;9.584;2023-03-01T01:18:53;34.97;;;33.28;;
487;SDS011;16586;48.976;9.584;2023-03-01T01:21:22;36.60;;;34.80;;
487;SDS011;16586;48.976;9.584;2023-03-01T01:23:50;39.40;;;37.47;;
487;SDS011;16586;48.976;9.584;2023-03-01T01:26:19;53.90;;;51.30;;
487;SDS011;16586;48.976;9.584;2023-03-01T01:28:47;39.03;;;37.13;;
487;SDS011;16586;48.976;9.584;2023-03-01T01:31:15;43.83;;;41.73;;
487;SDS011;16586;48.976;9.584;2023-03-01T01:33:43;50.00;;;47.60;;
487;SDS011;16586;48.976;9.584;2023-03-01T01:36:11;56.87;;;54.10;;
487;SDS011;16586;48.976;9.584;2023-03-01T01:38:38;56.45;;;53.72;;
487;SDS011;16586;48.976;9.584;2023-03-01T01:41:07;67.80;;;64.50;;
487;SDS011;16586;48.976;9.584;2023-03-01T01:43:37;53.78;;;51.17;;
487;SDS011;16586;48.976;9.584;2023-03-01T01:46:06;50.90;;;48.40;;
487;SDS011;16586;48.976;9.584;2023-03-01T01:48:39;58.80;;;55.95;;
487;SDS011;16586;48.976;9.584;2023-03-01T01:51:13;54.10;;;51.47;;
487;SDS011;16586;48.976;9.584;2023-03-01T01:53:43;45.83;;;43.63;;
487;SDS011;16586;48.976;9.584;2023-03-01T01:56:14;58.00;;;55.20;;
487;SDS011;16586;48.976;9.584;2023-03-01T01:58:43;52.15;;;49.65;;
487;SDS011;16586;48.976;9.584;2023-03-01T02:01:10;60.85;;;57.88;;
487;SDS011;16586;48.976;9.584;2023-03-01T02:03:38;41.22;;;39.22;;
487;SDS011;16586;48.976;9.584;2023-03-01T02:06:12;13.27;;;12.57;;
487;SDS011;16586;48.976;9.584;2023-03-01T02:08:45;15.02;;;14.23;;
487;SDS011;16586;48.976;9.584;2023-03-01T02:11:14;15.00;;;14.20;;
487;SDS011;16586;48.976;9.584;2023-03-01T02:13:41;12.80;;;12.10;;
487;SDS011;16586;48.976;9.584;2023-03-01T02:16:09;16.38;;;15.57;;
487;SDS011;16586;48.976;9.584;2023-03-01T02:18:37;16.58;;;15.75;;
487;SDS011;16586;48.976;9.584;2023-03-01T02:21:11;17.38;;;16.48;;
487;SDS011;16586;48.976;9.584;2023-03-01T02:23:52;19.95;;;18.95;;
487;SDS011;16586;48.976;9.584;2023-03-01T02:26:23;18.23;;;17.33;;
487;SDS011;16586;48.976;9.584;2023-03-01T02:28:57;19.73;;;18.73;;
487;SDS011;16586;48.976;9.584;2023-03-01T02:31:24;18.90;;;17.95;;
487;SDS011;16586;48.976;9.584;2023-03-01T02:34:11;14.82;;;14.05;;
487;SDS011;16586;48.976;9.584;2023-03-01T02:36:40;11.35;;;10.75;;
487;SDS011;16586;48.976;9.584;2023-03-01T02:39:12;18.73;;;17.80;;
487;SDS011;16586;48.976;9.584;2023-03-01T02:41:44;16.40;;;15.60;;
487;SDS011;16586;48.976;9.584;2023-03-01T02:44:24;18.42;;;17.52;;
487;SDS011;16586;48.976;9.584;2023-03-01T02:46:53;21.85;;;20.75;;
487;SDS011;16586;48.976;9.584;2023-03-01T02:49:24;13.63;;;12.93;;
487;SDS011;16586;48.976;9.584;2023-03-01T02:52:06;17.30;;;16.40;;
487;SDS011;16586;48.976;9.584;2023-03-01T02:54:58;23.42;;;22.23;;
487;SDS011;16586;48.976;9.584;2023-03-01T02:57:29;11.13;;;10.52;;
487;SDS011;16586;48.976;9.584;2023-03-01T02:59:59;12.70;;;12.02;;
487;SDS011;16586;48.976;9.584;2023-03-01T03:02:32;15.52;;;14.73;;
487;SDS011;16586;48.976;9.584;2023-03-01T03:05:08;15.57;;;14.77;;
487;SDS011;16586;48.976;9.584;2023-03-01T03:07:38;15.75;;;14.95;;
487;SDS011;16586;48.976;9.584;2023-03-01T03:10:08;24.50;;;23.30;;
487;SDS011;16586;48.976;9.584;2023-03-01T03:12:36;27.73;;;26.33;;
487;SDS011;16586;48.976;9.584;2023-03-01T03:15:05;15.37;;;14.57;;
487;SDS011;16586;48.976;9.584;2023-03-01T03:17:35;18.77;;;17.85;;
487;SDS011;16586;48.976;9.584;2023-03-01T03:20:05;31.38;;;29.85;;
487;SDS011;16586;48.976;9.584;2023-03-01T03:22:36;27.88;;;26.48;;
487;SDS011;16586;48.976;9.584;2023-03-01T03:25:04;21.23;;;20.13;;
487;SDS011;16586;48.976;9.584;2023-03-01T03:27:34;21.20;;;20.13;;
487;SDS011;16586;48.976;9.584;2023-03-01T03:30:01;15.95;;;15.15;;
487;SDS011;16586;48.976;9.584;2023-03-01T03:32:29;19.23;;;18.23;;
487;SDS011;16586;48.976;9.584;2023-03-01T03:34:56;21.25;;;20.15;;
487;SDS011;16586;48.976;9.584;2023-03-01T03:37:23;18.88;;;17.92;;
487;SDS011;16586;48.976;9.584;2023-03-01T03:40:10;17.92;;;17.02;;
487;SDS011;16586;48.976;9.584;2023-03-01T03:42:40;24.30;;;23.10;;
487;SDS011;16586;48.976;9.584;2023-03-01T03:45:07;24.65;;;23.45;;
487;SDS011;16586;48.976;9.584;2023-03-01T03:47:39;26.65;;;25.35;;
487;SDS011;16586;48.976;9.584;2023-03-01T03:50:07;32.95;;;31.35;;
487;SDS011;16586;48.976;9.584;2023-03-01T03:52:35;46.28;;;44.03;;
487;SDS011;16586;48.976;9.584;2023-03-01T03:55:02;40.97;;;38.97;;
487;SDS011;16586;48.976;9.584;2023-03-01T03:57:34;39.35;;;37.45;;
487;SDS011;16586;48.976;9.584;2023-03-01T04:00:01;21.90;;;20.80;;
487;SDS011;16586;48.976;9.584;2023-03-01T04:02:29;30.53;;;29.03;;
487;SDS011;16586;48.976;9.584;2023-03-01T04:04:58;32.93;;;31.33;;
487;SDS011;16586;48.976;9.584;2023-03-01T04:07:24;33.42;;;31.80;;
487;SDS011;16586;48.976;9.584;2023-03-01T04:09:53;40.63;;;38.65;;
487;SDS011;16586;48.976;9.584;2023-03-01T04:12:20;31.58;;;30.02;;
487;SDS011;16586;48.976;9.584;2023-03-01T04:14:48;45.97;;;43.75;;
487;SDS011;16586;48.976;9.584;2023-03-01T04:17:15;34.65;;;32.95;;
487;SDS011;16586;48.976;9.584;2023-03-01T04:19:41;36.28;;;34.47;;
487;SDS011;16586;48.976;9.584;2023-03-01T04:22:11;45.75;;;43.50;;
487;SDS011;16586;48.976;9.584;2023-03-01T04:24:43;44.92;;;42.72;;
487;SDS011;16586;48.976;9.584;2023-03-01T04:27:10;28.42;;;27.02;;
487;SDS011;16586;48.976;9.584;2023-03-01T04:29:37;26.90;;;25.60;;
487;SDS011;16586;48.976;9.584;2023-03-01T04:32:04;34.53;;;32.83;;
487;SDS011;16586;48.976;9.584;2023-03-01T04:34:31;23.33;;;22.15;;
487;SDS011;16586;48.976;9.584;2023-03-01T04:36:58;20.50;;;19.50;;
487;SDS011;16586;48.976;9.584;2023-03-01T04:39:26;22.40;;;21.30;;
487;SDS011;16586;48.976;9.584;2023-03-01T04:41:53;25.40;;;24.13;;
487;SDS011;16586;48.976;9.584;2023-03-01T04:44:19;30.40;;;28.90;;
487;SDS011;16586;48.976;9.584;2023-03-01T04:46:48;26.38;;;25.08;;
487;SDS011;16586;48.976;9.584;2023-03-01T04:49:15;24.60;;;23.40;;
487;SDS011;16586;48.976;9.584;2023-03-01T04:51:42;28.75;;;27.35;;
487;SDS011;16586;48.976;9.584;2023-03-01T04:54:09;42.83;;;40.72;;
487;SDS011;16586;48.976;9.584;2023-03-01T04:56:37;47.73;;;45.43;;
487;SDS011;16586;48.976;9.584;2023-03-01T04:59:04;47.80;;;45.50;;
487;SDS011;16586;48.976;9.584;2023-03-01T05:01:31;38.33;;;36.42;;
487;SDS011;16586;48.976;9.584;2023-03-01T05:03:58;35.63;;;33.88;;
487;SDS011;16586;48.976;9.584;2023-03-01T05:06:27;50.13;;;47.72;;
487;SDS011;16586;48.976;9.584;2023-03-01T05:08:54;34.42;;;32.72;;
487;SDS011;16586;48.976;9.584;2023-03-01T05:11:22;32.60;;;31.00;;
487;SDS011;16586;48.976;9.584;2023-03-01T05:13:50;35.33;;;33.60;;
487;SDS011;16586;48.976;9.584;2023-03-01T05:16:19;40.38;;;38.38;;
487;SDS011;16586;48.976;9.584;2023-03-01T05:18:46;40.25;;;38.25;;
487;SDS011;16586;48.976;9.584;2023-03-01T05:21:15;44.33;;;42.13;;
487;SDS011;16586;48.976;9.584;2023-03-01T05:23:42;30.17;;;28.67;;
487;SDS011;16586;48.976;9.584;2023-03-01T05:26:09;30.50;;;29.00;;
487;SDS011;16586;48.976;9.584;2023-03-01T05:28:37;31.95;;;30.35;;
487;SDS011;16586;48.976;9.584;2023-03-01T05:31:06;57.38;;;54.58;;
487;SDS011;16586;48.976;9.584;2023-03-01T05:33:35;31.02;;;29.52;;
487;SDS011;16586;48.976;9.584;2023-03-01T05:36:02;45.95;;;43.75;;
487;SDS011;16586;48.976;9.584;2023-03-01T05:38:29;41.55;;;39.55;;
487;SDS011;16586;48.976;9.584;2023-03-01T05:40:56;45.13;;;42.92;;
487;SDS011;16586;48.976;9.584;2023-03-01T05:43:23;31.52;;;29.98;;
487;SDS011;16586;48.976;9.584;2023-03-01T05:45:50;38.60;;;36.70;;
487;SDS011;16586;48.976;9.584;2023-03-01T05:48:18;36.70;;;34.90;;
487;SDS011;16586;48.976;9.584;2023-03-01T05:50:45;37.53;;;35.70;;
487;SDS011;16586;48.976;9.584;2023-03-01T05:53:14;52.65;;;50.10;;
487;SDS011;16586;48.976;9.584;2023-03-01T05:55:42;54.95;;;52.25;;
487;SDS011;16586;48.976;9.584;2023-03-01T05:58:12;46.28;;;44.03;;
487;SDS011;16586;48.976;9.584;2023-03-01T06:00:41;44.33;;;42.15;;
487;SDS011;16586;48.976;9.584;2023-03-01T06:03:09;39.67;;;37.75;;
487;SDS011;16586;48.976;9.584;2023-03-01T06:05:38;38.90;;;37.00;;
487;SDS011;16586;48.976;9.584;2023-03-01T06:08:05;35.30;;;33.58;;
487;SDS011;16586;48.976;9.584;2023-03-01T06:10:33;51.53;;;49.03;;
487;SDS011;16586;48.976;9.584;2023-03-01T06:13:00;32.20;;;30.60;;
487;SDS011;16586;48.976;9.584;2023-03-01T06:15:26;56.75;;;54.00;;
487;SDS011;16586;48.976;9.584;2023-03-01T06:17:54;33.33;;;31.70;;
487;SDS011;16586;48.976;9.584;2023-03-01T06:20:22;25.27;;;24.00;;
487;SDS011;16586;48.976;9.584;2023-03-01T06:22:55;29.73;;;28.23;;
487;SDS011;16586;48.976;9.584;2023-03-01T06:25:23;24.02;;;22.83;;
487;SDS011;16586;48.976;9.584;2023-03-01T06:27:51;33.20;;;31.60;;
487;SDS011;16586;48.976;9.584;2023-03-01T06:30:18;20.50;;;19.50;;
487;SDS011;16586;48.976;9.584;2023-03-01T06:32:46;27.35;;;26.00;;
487;SDS011;16586;48.976;9.584;2023-03-01T06:35:14;33.95;;;32.28;;
487;SDS011;16586;48.976;9.584;2023-03-01T06:37:42;26.85;;;25.55;;
487;SDS011;16586;48.976;9.584;2023-03-01T06:40:11;29.83;;;28.33;;
487;SDS011;16586;48.976;9.584;2023-03-01T06:42:40;31.33;;;29.80;;
487;SDS011;16586;48.976;9.584;2023-03-01T06:45:08;21.50;;;20.40;;
487;SDS011;16586;48.976;9.584;2023-03-01T06:47:35;23.08;;;21.92;;
487;SDS011;16586;48.976;9.584;2023-03-01T06:50:02;25.93;;;24.63;;
487;SDS011;16586;48.976;9.584;2023-03-01T06:52:30;29.27;;;27.83;;
487;SDS011;16586;48.976;9.584;2023-03-01T06:54:57;25.27;;;24.02;;
487;SDS011;16586;48.976;9.584;2023-03-01T06:57:25;28.03;;;26.63;;
487;SDS011;16586;48.976;9.584;2023-03-01T06:59:52;26.77;;;25.48;;
487;SDS011;16586;48.976;9.584;2023-03-01T07:02:22;49.38;;;46.97;;
487;SDS011;16586;48.976;9.584;2023-03-01T07:04:49;40.75;;;38.75;;
487;SDS011;16586;48.976;9.584;2023-03-01T07:07:16;27.08;;;25.75;;
487;SDS011;16586;48.976;9.584;2023-03-01T07:09:45;30.83;;;29.33;;
487;SDS011;16586;48.976;9.584;2023-03-01T07:12:12;55.47;;;52.80;;
487;SDS011;16586;48.976;9.584;2023-03-01T07:14:40;36.80;;;35.00;;
487;SDS011;16586;48.976;9.584;2023-03-01T07:17:07;57.92;;;55.13;;
487;SDS011;16586;48.976;9.584;2023-03-01T07:19:36;47.30;;;45.00;;
487;SDS011;16586;48.976;9.584;2023-03-01T07:22:03;40.75;;;38.75;;
487;SDS011;16586;48.976;9.584;2023-03-01T07:24:32;42.10;;;40.00;;
487;SDS011;16586;48.976;9.584;2023-03-01T07:26:59;50.90;;;48.40;;
487;SDS011;16586;48.976;9.584;2023-03-01T07:29:26;37.75;;;35.90;;
487;SDS011;16586;48.976;9.584;2023-03-01T07:31:55;42.47;;;40.38;;
487;SDS011;16586;48.976;9.584;2023-03-01T07:34:21;41.03;;;39.03;;
487;SDS011;16586;48.976;9.584;2023-03-01T07:36:48;30.73;;;29.23;;
487;SDS011;16586;48.976;9.584;2023-03-01T07:39:15;52.78;;;50.20;;
487;SDS011;16586;48.976;9.584;2023-03-01T07:41:42;37.83;;;35.97;;
487;SDS011;16586;48.976;9.584;2023-03-01T07:44:09;41.90;;;39.88;;
487;SDS011;16586;48.976;9.584;2023-03-01T07:46:36;52.13;;;49.60;;
487;SDS011;16586;48.976;9.584;2023-03-01T07:49:10;53.40;;;50.80;;
487;SDS011;16586;48.976;9.584;2023-03-01T07:51:37;23.08;;;21.92;;
487;SDS011;16586;48.976;9.584;2023-03-01T07:54:04;19.33;;;18.33;;
487;SDS011;16586;48.976;9.584;2023-03-01T07:56:41;33.92;;;32.22;;
487;SDS011;16586;48.976;9.584;2023-03-01T07:59:09;29.07;;;27.67;;
487;SDS011;16586;48.976;9.584;2023-03-01T08:01:35;24.60;;;23.40;;
487;SDS011;16586;48.976;9.584;2023-03-01T08:04:02;41.10;;;39.10;;
487;SDS011;16586;48.976;9.584;2023-03-01T08:06:33;31.30;;;29.77;;
487;SDS011;16586;48.976;9.584;2023-03-01T08:09:01;35.58;;;33.85;;
487;SDS011;16586;48.976;9.584;2023-03-01T08:11:28;36.80;;;35.00;;
487;SDS011;16586;48.976;9.584;2023-03-01T08:13:55;36.40;;;34.60;;
487;SDS011;16586;48.976;9.584;2023-03-01T08:16:22;37.40;;;35.60;;
487;SDS011;16586;48.976;9.584;2023-03-01T08:18:49;38.15;;;36.25;;
487;SDS011;16586;48.976;9.584;2023-03-01T08:21:17;38.50;;;36.60;;
487;SDS011;16586;48.976;9.584;2023-03-01T08:23:45;39.20;;;37.30;;
487;SDS011;16586;48.976;9.584;2023-03-01T08:26:12;8.52;;;8.02;;
487;SDS011;16586;48.976;9.584;2023-03-01T08:28:41;9.47;;;8.97;;
487;SDS011;16586;48.976;9.584;2023-03-01T08:31:14;8.65;;;8.15;;
487;SDS011;16586;48.976;9.584;2023-03-01T08:33:42;8.00;;;7.60;;
487;SDS011;16586;48.976;9.584;2023-03-01T08:36:09;8.20;;;7.80;;
487;SDS011;16586;48.976;9.584;2023-03-01T08:38:36;9.40;;;8.90;;
487;SDS011;16586;48.976;9.584;2023-03-01T08:41:04;7.88;;;7.47;;
487;SDS011;16586;48.976;9.584;2023-03-01T08:43:31;7.38;;;6.97;;
487;SDS011;16586;48.976;9.584;2023-03-01T08:45:58;11.33;;;10.73;;
487;SDS011;16586;48.976;9.584;2023-03-01T08:48:25;9.40;;;8.90;;
487;SDS011;16586;48.976;9.584;2023-03-01T08:50:54;7.57;;;7.18;;
487;SDS011;16586;48.976;9.584;2023-03-01T08:53:20;7.80;;;7.40;;
487;SDS011;16586;48.976;9.584;2023-03-01T08:55:50;7.75;;;7.35;;
487;SDS011;16586;48.976;9.584;2023-03-01T08:58:18;8.07;;;7.03;;
487;SDS011;16586;48.976;9.584;2023-03-01T09:00:45;7.55;;;7.15;;
487;SDS011;16586;48.976;9.584;2023-03-01T09:03:12;7.63;;;7.22;;
487;SDS011;16586;48.976;9.584;2023-03-01T09:05:40;6.70;;;6.30;;
487;SDS011;16586;48.976;9.584;2023-03-01T09:08:07;8.20;;;7.80;;
487;SDS011;16586;48.976;9.584;2023-03-01T09:10:37;7.82;;;7.43;;
487;SDS011;16586;48.976;9.584;2023-03-01T09:13:04;8.02;;;7.63;;
487;SDS011;16586;48.976;9.584;2023-03-01T09:15:32;8.70;;;8.20;;
487;SDS011;16586;48.976;9.584;2023-03-01T09:17:59;8.80;;;8.30;;
487;SDS011;16586;48.976;9.584;2023-03-01T09:20:26;7.43;;;7.03;;
487;SDS011;16586;48.976;9.584;2023-03-01T09:22:54;8.70;;;8.20;;
487;SDS011;16586;48.976;9.584;2023-03-01T09:25:21;7.47;;;7.07;;
487;SDS011;16586;48.976;9.584;2023-03-01T09:27:50;8.32;;;7.90;;
487;SDS011;16586;48.976;9.584;2023-03-01T09:30:21;9.07;;;8.57;;
487;SDS011;16586;48.976;9.584;2023-03-01T09:32:50;8.90;;;8.40;;
487;SDS011;16586;48.976;9.584;2023-03-01T09:35:17;11.73;;;11.13;;
487;SDS011;16586;48.976;9.584;2023-03-01T09:37:45;11.95;;;11.35;;
487;SDS011;16586;48.976;9.584;2023-03-01T09:40:12;12.38;;;11.75;;
487;SDS011;16586;48.976;9.584;2023-03-01T09:42:46;11.68;;;11.07;;
487;SDS011;16586;48.976;9.584;2023-03-01T09:45:21;32.92;;;31.33;;
487;SDS011;16586;48.976;9.584;2023-03-01T09:47:54;122.27;;;116.37;;
487;SDS011;16586;48.976;9.584;2023-03-01T09:50:22;38.20;;;36.33;;
487;SDS011;16586;48.976;9.584;2023-03-01T09:52:54;19.52;;;18.52;;
487;SDS011;16586;48.976;9.584;2023-03-01T09:55:29;17.27;;;16.40;;
487;SDS011;16586;48.976;9.584;2023-03-01T09:58:00;16.75;;;15.93;;
487;SDS011;16586;48.976;9.584;2023-03-01T10:00:52;22.73;;;21.63;;
487;SDS011;16586;48.976;9.584;2023-03-01T10:03:22;58.45;;;55.63;;
487;SDS011;16586;48.976;9.584;2023-03-01T10:05:56;24.42;;;23.23;;
487;SDS011;16586;48.976;9.584;2023-03-01T10:08:29;11.30;;;10.70;;
487;SDS011;16586;48.976;9.584;2023-03-01T10:11:04;11.10;;;10.50;;
487;SDS011;16586;48.976;9.584;2023-03-01T10:13:33;13.40;;;12.70;;
487;SDS011;16586;48.976;9.584;2023-03-01T10:16:10;22.50;;;21.40;;
487;SDS011;16586;48.976;9.584;2023-03-01T10:18:52;35.75;;;34.00;;
487;SDS011;16586;48.976;9.584;2023-03-01T10:21:23;92.10;;;87.70;;
487;SDS011;16586;48.976;9.584;2023-03-01T10:23:52;249.63;;;237.68;;
487;SDS011;16586;48.976;9.584;2023-03-01T10:26:29;393.93;;;375.13;;
487;SDS011;16586;48.976;9.584;2023-03-01T10:29:11;17.63;;;16.73;;
487;SDS011;16586;48.976;9.584;2023-03-01T10:31:40;6.90;;;6.50;;
487;SDS011;16586;48.976;9.584;2023-03-01T10:34:15;186.73;;;177.77;;
487;SDS011;16586;48.976;9.584;2023-03-01T10:36:43;529.28;;;504.05;;
487;SDS011;16586;48.976;9.584;2023-03-01T10:39:17;585.85;;;557.90;;
487;SDS011;16586;48.976;9.584;2023-03-01T10:41:53;626.67;;;596.78;;
487;SDS011;16586;48.976;9.584;2023-03-01T10:44:39;740.38;;;705.10;;
487;SDS011;16586;48.976;9.584;2023-03-01T10:47:12;825.13;;;785.80;;
487;SDS011;16586;48.976;9.584;2023-03-01T10:49:53;893.17;;;850.57;;
487;SDS011;16586;48.976;9.584;2023-03-01T10:52:23;948.65;;;903.45;;
487;SDS011;16586;48.976;9.584;2023-03-01T10:54:52;953.40;;;907.95;;
487;SDS011;16586;48.976;9.584;2023-03-01T10:57:31;939.05;;;894.30;;
487;SDS011;16586;48.976;9.584;2023-03-01T11:00:15;1018.88;;;970.30;;
487;SDS011;16586;48.976;9.584;2023-03-01T11:02:46;1015.10;;;966.72;;
487;SDS011;16586;48.976;9.584;2023-03-01T11:05:23;1163.90;;;999.90;;
487;SDS011;16586;48.976;9.584;2023-03-01T11:07:51;1023.67;;;974.90;;
487;SDS011;16586;48.976;9.584;2023-03-01T11:10:20;1038.93;;;989.40;;
487;SDS011;16586;48.976;9.584;2023-03-01T11:12:50;1031.68;;;982.50;;
487;SDS011;16586;48.976;9.584;2023-03-01T11:15:19;1027.32;;;978.35;;
487;SDS011;16586;48.976;9.584;2023-03-01T11:17:52;1021.33;;;972.63;;
487;SDS011;16586;48.976;9.584;2023-03-01T11:20:25;1084.47;;;999.90;;
487;SDS011;16586;48.976;9.584;2023-03-01T11:22:56;1395.70;;;999.90;;
487;SDS011;16586;48.976;9.584;2023-03-01T11:25:26;1202.70;;;999.90;;
487;SDS011;16586;48.976;9.584;2023-03-01T11:27:58;1409.85;;;999.90;;
487;SDS011;16586;48.976;9.584;2023-03-01T11:30:28;1410.70;;;999.90;;
487;SDS011;16586;48.976;9.584;2023-03-01T11:33:05;1411.85;;;999.90;;
487;SDS011;16586;48.976;9.584;2023-03-01T11:35:44;1417.53;;;999.90;;
487;SDS011;16586;48.976;9.584;2023-03-01T11:38:17;1424.30;;;999.90;;
487;SDS011;16586;48.976;9.584;2023-03-01T11:40:49;1422.70;;;999.90;;
487;SDS011;16586;48.976;9.584;2023-03-01T11:43:27;1427.60;;;999.90;;
487;SDS011;16586;48.976;9.584;2023-03-01T11:46:08;1431.63;;;999.90;;
487;SDS011;16586;48.976;9.584;2023-03-01T11:49:01;1437.10;;;999.90;;
487;SDS011;16586;48.976;9.584;2023-03-01T11:51:55;1428.93;;;999.90;;
487;SDS011;16586;48.976;9.584;2023-03-01T11:54:32;1423.38;;;999.90;;
487;SDS011;16586;48.976;9.584;2023-03-01T11:57:11;1421.88;;;999.90;;
487;SDS011;16586;48.976;9.584;2023-03-01T11:59:53;1423.00;;;999.90;;
487;SDS011;16586;48.976;9.584;2023-03-01T12:05:50;1394.78;;;999.90;;
487;SDS011;16586;48.976;9.584;2023-03-01T12:08:42;1378.18;;;999.90;;
487;SDS011;16586;48.976;9.584;2023-03-01T12:11:23;1058.63;;;999.90;;
487;SDS011;16586;48.976;9.584;2023-03-01T12:14:12;560.05;;;533.35;;
487;SDS011;16586;48.976;9.584;2023-03-01T12:16:52;511.15;;;486.75;;
487;SDS011;16586;48.976;9.584;2023-03-01T12:19:33;593.40;;;565.10;;
487;SDS011;16586;48.976;9.584;2023-03-01T12:22:19;1253.65;;;999.90;;
487;SDS011;16586;48.976;9.584;2023-03-01T12:25:02;987.50;;;940.42;;
487;SDS011;16586;48.976;9.584;2023-03-01T12:30:34;1006.13;;;958.17;;
487;SDS011;16586;48.976;9.584;2023-03-01T12:33:15;1042.40;;;992.70;;
487;SDS011;16586;48.976;9.584;2023-03-01T12:35:51;1098.88;;;999.90;;
487;SDS011;16586;48.976;9.584;2023-03-01T12:38:40;971.03;;;924.75;;
487;SDS011;16586;48.976;9.584;2023-03-01T12:44:11;758.88;;;722.67;;
487;SDS011;16586;48.976;9.584;2023-03-01T12:46:59;687.40;;;654.60;;
487;SDS011;16586;48.976;9.584;2023-03-01T12:49:38;560.65;;;533.90;;
487;SDS011;16586;48.976;9.584;2023-03-01T12:52:15;516.45;;;491.80;;
487;SDS011;16586;48.976;9.584;2023-03-01T12:54:47;521.93;;;497.03;;
487;SDS011;16586;48.976;9.584;2023-03-01T12:57:23;518.65;;;493.90;;
487;SDS011;16586;48.976;9.584;2023-03-01T13:00:05;501.13;;;477.23;;
487;SDS011;16586;48.976;9.584;2023-03-01T13:02:45;549.40;;;523.20;;
487;SDS011;16586;48.976;9.584;2023-03-01T13:05:19;517.33;;;492.65;;
487;SDS011;16586;48.976;9.584;2023-03-01T13:07:54;509.75;;;485.42;;
487;SDS011;16586;48.976;9.584;2023-03-01T13:10:31;524.63;;;499.57;;
487;SDS011;16586;48.976;9.584;2023-03-01T13:15:52;954.25;;;908.75;;
487;SDS011;16586;48.976;9.584;2023-03-01T13:18:27;905.40;;;862.22;;
487;SDS011;16586;48.976;9.584;2023-03-01T13:20:59;909.50;;;866.13;;
487;SDS011;16586;48.976;9.584;2023-03-01T13:23:29;873.42;;;831.80;;
487;SDS011;16586;48.976;9.584;2023-03-01T13:26:12;905.13;;;861.97;;
487;SDS011;16586;48.976;9.584;2023-03-01T13:28:49;937.85;;;893.15;;
487;SDS011;16586;48.976;9.584;2023-03-01T13:34:41;882.33;;;840.25;;
487;SDS011;16586;48.976;9.584;2023-03-01T13:37:10;946.67;;;901.55;;
487;SDS011;16586;48.976;9.584;2023-03-01T13:39:44;953.75;;;908.28;;
487;SDS011;16586;48.976;9.584;2023-03-01T13:42:30;922.65;;;878.67;;
487;SDS011;16586;48.976;9.584;2023-03-01T13:45:00;940.92;;;896.08;;
487;SDS011;16586;48.976;9.584;2023-03-01T13:47:27;892.65;;;850.10;;
487;SDS011;16586;48.976;9.584;2023-03-01T13:49:55;944.45;;;899.45;;
487;SDS011;16586;48.976;9.584;2023-03-01T13:52:29;1003.97;;;956.10;;
487;SDS011;16586;48.976;9.584;2023-03-01T13:55:05;946.83;;;901.70;;
487;SDS011;16586;48.976;9.584;2023-03-01T13:57:43;944.47;;;899.45;;
487;SDS011;16586;48.976;9.584;2023-03-01T14:00:26;866.15;;;824.85;;
487;SDS011;16586;48.976;9.584;2023-03-01T14:03:08;845.10;;;804.80;;
487;SDS011;16586;48.976;9.584;2023-03-01T14:05:37;870.27;;;828.77;;
487;SDS011;16586;48.976;9.584;2023-03-01T14:08:14;886.70;;;844.42;;
487;SDS011;16586;48.976;9.584;2023-03-01T14:10:49;812.38;;;773.67;;
487;SDS011;16586;48.976;9.584;2023-03-01T14:13:57;833.60;;;793.85;;
487;SDS011;16586;48.976;9.584;2023-03-01T14:16:38;778.10;;;741.00;;
487;SDS011;16586;48.976;9.584;2023-03-01T14:19:15;785.10;;;747.70;;
487;SDS011;16586;48.976;9.584;2023-03-01T14:21:45;826.40;;;787.00;;
487;SDS011;16586;48.976;9.584;2023-03-01T14:24:20;819.33;;;780.28;;
487;SDS011;16586;48.976;9.584;2023-03-01T14:26:48;750.33;;;714.53;;
487;SDS011;16586;48.976;9.584;2023-03-01T14:29:26;769.88;;;733.17;;
487;SDS011;16586;48.976;9.584;2023-03-01T14:32:09;741.15;;;705.83;;
487;SDS011;16586;48.976;9.584;2023-03-01T14:34:45;725.35;;;690.75;;
487;SDS011;16586;48.976;9.584;2023-03-01T14:37:20;744.40;;;708.90;;
487;SDS011;16586;48.976;9.584;2023-03-01T14:39:48;699.15;;;665.85;;
487;SDS011;16586;48.976;9.584;2023-03-01T14:42:16;643.00;;;612.33;;
487;SDS011;16586;48.976;9.584;2023-03-01T14:44:46;634.05;;;603.83;;
487;SDS011;16586;48.976;9.584;2023-03-01T14:47:18;640.90;;;610.35;;
487;SDS011;16586;48.976;9.584;2023-03-01T14:49:52;609.22;;;580.17;;
487;SDS011;16586;48.976;9.584;2023-03-01T14:52:25;598.15;;;569.60;;
487;SDS011;16586;48.976;9.584;2023-03-01T14:55:00;635.15;;;604.85;;
487;SDS011;16586;48.976;9.584;2023-03-01T14:57:30;627.50;;;597.57;;
487;SDS011;16586;48.976;9.584;2023-03-01T15:00:05;629.10;;;599.10;;
487;SDS011;16586;48.976;9.584;2023-03-01T15:02:34;658.80;;;627.40;;
487;SDS011;16586;48.976;9.584;2023-03-01T15:05:04;664.90;;;633.20;;
487;SDS011;16586;48.976;9.584;2023-03-01T15:07:33;674.50;;;642.35;;
487;SDS011;16586;48.976;9.584;2023-03-01T15:10:03;693.13;;;660.07;;
487;SDS011;16586;48.976;9.584;2023-03-01T15:12:34;650.87;;;619.83;;
487;SDS011;16586;48.976;9.584;2023-03-01T15:18:00;617.42;;;587.97;;
487;SDS011;16586;48.976;9.584;2023-03-01T15:20:32;620.42;;;590.83;;